EGTI weather

CLOSED Leavesden Aerodrome
Watford, England, United Kingdom

Public forecast

Using degrees Celsius for public forecast. Weather courtesy of forecast.io.

METAR (pilot weather report)

Report is more than 2 hours old.

Closest report is RAF Northolt, 8.2 nm (15.1 km) S. Retrieved 2019/03/26 17:50 UTC (3 hours ago):

EGWU 261750Z 34005KT 9999 FEW048 12/03 Q1032 BLU NOSIG

TAF (pilot weather forecast)

Closest forecast is RAF Northolt, 8.2 nm (15.1 km) S. Retrieved 2019/03/26 18:00 UTC (2 hours ago):

TAF EGVN 261642Z 2618/2718 32005KT 9999 SCT035= TAF EGWU 261645Z 2618/2712 32004KT 9999 SCT045